Willseyville, New York
Current Conditions -  °F | °C
As of 6:10 AM on Thursday 23 Oct 2014 (Local Time) from KITH Reporting Station
Broken Clouds Broken Clouds  
Wind Chill: 37°   Ceiling: 1600
Heat Index: 43°   Visibility: 10mi
Dew Point: 39°   Wind: 10mph
Humidity: 87%   Direction: 330°NNW
Pressure: 29.99"   Gusts: NA
Location:  42.29°N, 76.38°W
Report Text: KITH 231010Z AUTO 33009KT 10SM BKN016 06/04 A2999 RMK AO2
Loading
Personal Weather Stations






























Interactive Weather Map
Tropical Storm Tracking
New forecast layout! Learn more

10-Day Weather Forecast

Advertisements
Track Severe Weather on mobile